createdAt,value
2022-08-26T00:01:54.180Z,7.80
2022-08-26T00:04:25.432Z,8.60
2022-08-26T00:06:54.300Z,7.68
2022-08-26T00:09:21.571Z,7.82
2022-08-26T00:11:48.878Z,8.07
2022-08-26T00:14:16.558Z,8.43
2022-08-26T00:16:47.171Z,8.02
2022-08-26T00:19:20.952Z,7.60
2022-08-26T00:21:49.633Z,8.27
2022-08-26T00:24:18.476Z,8.38
2022-08-26T00:26:45.690Z,8.00
2022-08-26T00:29:16.101Z,7.43
2022-08-26T00:31:45.254Z,8.23
2022-08-26T00:34:15.332Z,8.65
2022-08-26T00:36:43.081Z,7.57
2022-08-26T00:39:10.639Z,7.97
2022-08-26T00:41:39.862Z,8.35
2022-08-26T00:44:08.424Z,8.23
2022-08-26T00:46:46.498Z,8.15
2022-08-26T00:49:17.073Z,8.18
2022-08-26T00:51:50.902Z,8.93
2022-08-26T00:54:21.291Z,8.45
2022-08-26T00:56:59.955Z,9.55
2022-08-26T00:59:29.241Z,7.95
2022-08-26T01:02:02.871Z,8.82
2022-08-26T01:04:33.469Z,8.68
2022-08-26T01:07:01.457Z,8.02
2022-08-26T01:09:30.413Z,8.32
2022-08-26T01:12:00.644Z,9.07
2022-08-26T01:14:32.651Z,7.75
2022-08-26T01:17:02.878Z,8.52
2022-08-26T01:19:41.265Z,8.30
2022-08-26T01:22:15.943Z,8.35
2022-08-26T01:24:43.877Z,8.13
2022-08-26T01:27:15.456Z,7.25
2022-08-26T01:29:44.821Z,7.88
2022-08-26T01:32:16.041Z,9.13
2022-08-26T01:34:43.239Z,9.27
2022-08-26T01:37:15.993Z,7.85
2022-08-26T01:39:46.871Z,9.23
2022-08-26T01:42:15.665Z,10.05
2022-08-26T01:44:51.554Z,7.97
2022-08-26T01:47:21.599Z,8.57
2022-08-26T01:49:53.652Z,8.23
2022-08-26T01:52:28.065Z,8.13
2022-08-26T01:54:59.044Z,8.30
2022-08-26T01:57:28.427Z,7.55
2022-08-26T02:00:01.083Z,8.77
2022-08-26T02:02:29.025Z,8.13
2022-08-26T02:05:03.534Z,8.52
2022-08-26T02:07:33.252Z,8.38
2022-08-26T02:10:00.679Z,9.15
2022-08-26T02:12:27.863Z,8.93
2022-08-26T02:14:58.005Z,9.05
2022-08-26T02:17:42.615Z,8.98
2022-08-26T02:20:15.708Z,8.70
2022-08-26T02:22:45.039Z,8.43
2022-08-26T02:25:43.114Z,7.25
2022-08-26T02:28:12.381Z,8.82
2022-08-26T02:30:41.094Z,8.52
2022-08-26T02:33:08.176Z,8.15
2022-08-26T02:35:37.348Z,9.52
2022-08-26T02:38:10.271Z,9.02
2022-08-26T02:40:41.116Z,8.65
2022-08-26T02:43:09.716Z,8.75
2022-08-26T02:45:37.064Z,9.57
2022-08-26T02:48:17.189Z,8.48
2022-08-26T02:50:46.126Z,9.20
2022-08-26T02:53:14.385Z,8.85
2022-08-26T02:55:42.316Z,9.18
2022-08-26T02:58:10.592Z,8.65
2022-08-26T03:00:39.413Z,8.32
2022-08-26T03:03:23.620Z,9.15
2022-08-26T03:05:54.276Z,9.10
2022-08-26T03:08:22.246Z,8.65
2022-08-26T03:10:49.396Z,9.70
2022-08-26T03:13:18.147Z,8.63
2022-08-26T03:15:45.969Z,8.38
2022-08-26T03:18:15.177Z,9.38
2022-08-26T03:20:42.263Z,8.52
2022-08-26T03:23:11.245Z,8.50
2022-08-26T03:25:38.660Z,9.10
2022-08-26T03:28:05.765Z,8.55
2022-08-26T03:30:44.873Z,9.20
2022-08-26T03:33:13.854Z,9.05
2022-08-26T03:35:43.721Z,8.98
2022-08-26T03:38:11.107Z,8.65
2022-08-26T03:40:39.009Z,9.30
2022-08-26T03:43:10.300Z,9.48
2022-08-26T03:45:38.985Z,9.07
2022-08-26T03:48:05.918Z,8.98
2022-08-26T03:50:34.268Z,10.30
2022-08-26T03:53:03.694Z,7.90
2022-08-26T03:55:33.074Z,9.32
2022-08-26T03:58:01.018Z,10.82
2022-08-26T04:00:28.688Z,8.65
2022-08-26T04:02:55.685Z,9.82
2022-08-26T04:05:23.792Z,9.77
2022-08-26T04:07:51.533Z,9.05
2022-08-26T04:10:28.716Z,9.73
2022-08-26T04:13:00.417Z,9.82
2022-08-26T04:15:27.757Z,10.98
2022-08-26T04:17:56.085Z,11.25
2022-08-26T04:20:26.521Z,11.82
2022-08-26T04:22:54.101Z,11.25
2022-08-26T04:25:21.285Z,11.13
2022-08-26T04:27:48.693Z,10.85
2022-08-26T04:30:18.415Z,10.43
2022-08-26T04:32:45.701Z,10.98
2022-08-26T04:35:13.006Z,10.23
2022-08-26T04:37:40.104Z,9.85
2022-08-26T04:40:11.209Z,10.35
2022-08-26T04:42:38.783Z,10.20
2022-08-26T04:45:10.282Z,10.65
2022-08-26T04:47:38.669Z,10.85
2022-08-26T04:50:07.688Z,9.82
2022-08-26T04:52:36.822Z,10.65
2022-08-26T04:55:06.553Z,10.60
2022-08-26T04:57:36.267Z,10.73
2022-08-26T05:00:06.833Z,10.73
2022-08-26T05:02:34.343Z,11.20
2022-08-26T05:05:01.702Z,11.48
2022-08-26T05:07:28.686Z,10.48
2022-08-26T05:09:55.694Z,11.05
2022-08-26T05:12:23.382Z,10.77
2022-08-26T05:14:50.810Z,10.80
2022-08-26T05:17:19.270Z,11.20
2022-08-26T05:19:47.261Z,10.50
2022-08-26T05:22:14.979Z,10.50
2022-08-26T05:24:42.220Z,10.45
2022-08-26T05:27:11.637Z,10.38
2022-08-26T05:29:41.459Z,10.40
2022-08-26T05:32:08.577Z,10.52
2022-08-26T05:34:38.510Z,9.73
2022-08-26T05:37:06.661Z,10.57
2022-08-26T05:39:34.210Z,9.73
2022-08-26T05:42:02.227Z,10.80
2022-08-26T05:44:29.259Z,10.93
2022-08-26T05:47:16.298Z,10.27
2022-08-26T05:49:51.404Z,10.38
2022-08-26T05:52:20.002Z,10.35
2022-08-26T05:54:47.650Z,10.98
2022-08-26T05:57:15.737Z,11.07
2022-08-26T05:59:43.044Z,10.23
2022-08-26T06:02:10.076Z,9.88
2022-08-26T06:04:37.430Z,10.63
2022-08-26T06:07:05.447Z,10.23
2022-08-26T06:09:37.409Z,9.25
2022-08-26T06:12:06.739Z,10.32
2022-08-26T06:14:33.719Z,10.07
2022-08-26T06:17:01.981Z,9.27
2022-08-26T06:19:34.297Z,8.93
2022-08-26T06:22:23.570Z,9.38
2022-08-26T06:25:17.345Z,9.00
2022-08-26T06:27:44.536Z,8.90
2022-08-26T06:30:12.355Z,9.30
2022-08-26T06:32:39.460Z,9.57
2022-08-26T06:35:07.413Z,8.13
2022-08-26T06:37:40.175Z,8.40
2022-08-26T06:40:09.085Z,8.98
2022-08-26T06:42:39.384Z,8.40
2022-08-26T06:45:07.499Z,7.97
2022-08-26T06:47:34.951Z,7.97
2022-08-26T06:50:02.949Z,7.53
2022-08-26T06:52:30.397Z,7.43
2022-08-26T06:54:57.628Z,7.82
2022-08-26T06:57:24.625Z,7.47
2022-08-26T06:59:51.818Z,7.85
2022-08-26T07:02:19.528Z,8.23
2022-08-26T07:04:48.000Z,8.18
2022-08-26T07:07:18.098Z,6.78
2022-08-26T07:09:48.963Z,6.60
2022-08-26T07:12:20.394Z,6.00
2022-08-26T07:14:48.243Z,6.68
2022-08-26T07:17:16.147Z,5.70
2022-08-26T07:19:43.786Z,6.13
2022-08-26T07:22:11.002Z,6.35
2022-08-26T07:24:41.109Z,5.95
2022-08-26T07:27:13.364Z,6.30
2022-08-26T07:29:42.337Z,6.20
2022-08-26T07:32:11.546Z,5.75
2022-08-26T07:34:39.847Z,5.15
2022-08-26T07:37:09.060Z,5.97
2022-08-26T07:39:36.378Z,5.93
2022-08-26T07:42:07.267Z,5.88
2022-08-26T07:44:36.888Z,5.85
2022-08-26T07:47:10.482Z,6.85
2022-08-26T07:49:52.726Z,5.70
2022-08-26T07:52:25.303Z,5.43
2022-08-26T07:54:55.508Z,5.47
2022-08-26T07:57:24.230Z,6.03
2022-08-26T07:59:52.123Z,5.65
2022-08-26T08:02:24.890Z,5.95
2022-08-26T08:04:54.609Z,6.25
2022-08-26T08:07:25.864Z,5.82
2022-08-26T08:10:11.304Z,6.30
2022-08-26T08:12:39.827Z,5.70
2022-08-26T08:15:07.737Z,5.80
2022-08-26T08:17:34.640Z,6.25
2022-08-26T08:20:03.013Z,5.53
2022-08-26T08:22:32.524Z,5.57
2022-08-26T08:25:00.023Z,5.55
2022-08-26T08:27:29.870Z,5.25
2022-08-26T08:29:57.283Z,4.80
2022-08-26T08:32:24.450Z,5.68
2022-08-26T08:34:51.687Z,5.22
2022-08-26T08:37:19.056Z,5.70
2022-08-26T08:39:45.949Z,4.72
2022-08-26T08:42:29.225Z,5.20
2022-08-26T08:44:59.421Z,4.80
2022-08-26T08:47:42.863Z,4.78
2022-08-26T08:50:32.004Z,4.90
2022-08-26T08:53:09.084Z,4.90
2022-08-26T08:55:48.184Z,4.70
2022-08-26T08:58:21.089Z,4.70
2022-08-26T09:01:03.019Z,4.65
2022-08-26T09:04:09.633Z,5.00
2022-08-26T09:06:38.891Z,4.78
2022-08-26T09:09:12.309Z,4.80
2022-08-26T09:11:39.529Z,4.75
2022-08-26T09:14:06.801Z,5.22
2022-08-26T09:16:49.140Z,5.10
2022-08-26T09:19:25.767Z,4.07
2022-08-26T09:22:01.582Z,4.45
2022-08-26T09:24:31.129Z,4.55
2022-08-26T09:26:59.324Z,5.43
2022-08-26T09:29:29.587Z,4.68
2022-08-26T09:32:22.110Z,4.15
2022-08-26T09:34:57.834Z,4.63
2022-08-26T09:37:39.329Z,3.80
2022-08-26T09:40:21.066Z,3.90
2022-08-26T09:43:07.720Z,4.50
2022-08-26T09:45:36.211Z,3.75
2022-08-26T09:48:04.897Z,4.20
2022-08-26T09:50:59.046Z,4.05
2022-08-26T09:53:49.583Z,3.63
2022-08-26T09:56:25.621Z,3.45
2022-08-26T09:58:56.641Z,4.30
2022-08-26T10:01:23.568Z,3.75
2022-08-26T10:03:51.511Z,3.50
2022-08-26T10:06:21.200Z,3.83
2022-08-26T10:09:10.921Z,3.88
2022-08-26T10:11:45.231Z,4.60
2022-08-26T10:14:39.560Z,4.07
2022-08-26T10:17:16.097Z,3.90
2022-08-26T10:19:56.689Z,3.85
2022-08-26T10:22:36.384Z,3.53
2022-08-26T10:25:09.921Z,3.78
2022-08-26T10:27:53.781Z,3.58
2022-08-26T10:30:47.801Z,3.58
2022-08-26T10:33:15.488Z,3.75
2022-08-26T10:36:02.296Z,4.05
2022-08-26T10:38:34.659Z,3.20
2022-08-26T10:41:09.807Z,3.10
2022-08-26T10:43:58.591Z,3.33
2022-08-26T10:46:34.444Z,4.88
2022-08-26T10:49:09.561Z,3.38
2022-08-26T10:51:58.483Z,3.95
2022-08-26T10:54:28.687Z,3.38
2022-08-26T10:57:22.450Z,3.50
2022-08-26T10:59:55.965Z,3.17
2022-08-26T11:02:48.327Z,3.22
2022-08-26T11:05:22.499Z,3.75
2022-08-26T11:07:54.928Z,3.33
2022-08-26T11:10:22.838Z,3.90
2022-08-26T11:12:58.293Z,4.15
2022-08-26T11:15:26.314Z,3.90
2022-08-26T11:17:55.317Z,3.63
2022-08-26T11:20:22.359Z,4.03
2022-08-26T11:22:51.848Z,4.05
2022-08-26T11:25:20.401Z,3.85
2022-08-26T11:27:57.496Z,4.50
2022-08-26T11:30:25.121Z,3.95
2022-08-26T11:32:57.241Z,4.03
2022-08-26T11:35:24.563Z,3.53
2022-08-26T11:37:56.626Z,3.67
2022-08-26T11:40:30.086Z,3.25
2022-08-26T11:43:00.703Z,3.22
2022-08-26T11:46:02.094Z,3.80
2022-08-26T11:48:39.043Z,4.40
2022-08-26T11:51:08.590Z,3.95
2022-08-26T11:53:38.921Z,3.30
2022-08-26T11:56:10.439Z,4.15
2022-08-26T11:58:47.068Z,3.85
2022-08-26T12:01:26.498Z,3.97
2022-08-26T12:03:56.783Z,3.90
2022-08-26T12:06:32.899Z,3.53
2022-08-26T12:09:02.704Z,3.83
2022-08-26T12:11:33.984Z,3.28
2022-08-26T12:14:04.772Z,3.20
2022-08-26T12:16:37.896Z,3.65
2022-08-26T12:19:32.639Z,3.75
2022-08-26T12:22:15.856Z,3.78
2022-08-26T12:24:47.762Z,3.33
2022-08-26T12:27:20.896Z,2.92
2022-08-26T12:30:13.881Z,3.20
2022-08-26T12:32:57.505Z,2.80
2022-08-26T12:35:26.074Z,2.97
2022-08-26T12:37:54.408Z,2.97
2022-08-26T12:43:59.095Z,3.22
2022-08-26T12:46:31.657Z,2.75
2022-08-26T12:49:01.818Z,2.80
2022-08-26T12:51:31.789Z,2.70
2022-08-26T12:53:59.418Z,2.72
2022-08-26T12:56:41.105Z,2.63
2022-08-26T12:59:25.196Z,3.25
2022-08-26T13:01:53.890Z,2.30
2022-08-26T13:04:38.093Z,2.33
2022-08-26T13:07:25.604Z,2.63
2022-08-26T13:09:58.184Z,2.28
2022-08-26T13:12:37.447Z,3.20
2022-08-26T13:15:05.791Z,2.83
2022-08-26T13:17:35.800Z,2.60
2022-08-26T13:20:04.293Z,2.38
2022-08-26T13:22:32.361Z,2.70
2022-08-26T13:24:59.859Z,3.03
2022-08-26T13:27:27.997Z,3.10
2022-08-26T13:29:57.673Z,3.22
2022-08-26T13:32:27.476Z,2.92
2022-08-26T13:34:56.724Z,3.05
2022-08-26T13:37:34.735Z,2.90
2022-08-26T13:40:05.802Z,3.03
2022-08-26T13:42:33.170Z,2.58
2022-08-26T13:45:02.393Z,2.60
2022-08-26T13:47:29.705Z,2.97
2022-08-26T13:49:56.929Z,2.70
2022-08-26T13:52:30.661Z,2.70
2022-08-26T13:55:01.805Z,2.58
2022-08-26T13:57:30.268Z,2.67
2022-08-26T13:59:59.426Z,2.30
2022-08-26T14:02:28.222Z,2.38
2022-08-26T14:04:55.381Z,2.78
2022-08-26T14:07:22.752Z,2.40
2022-08-26T14:09:49.923Z,2.70
2022-08-26T14:12:17.219Z,2.63
2022-08-26T14:14:44.234Z,2.70
2022-08-26T14:17:17.295Z,2.72
2022-08-26T14:19:47.110Z,3.15
2022-08-26T14:22:19.892Z,2.75
2022-08-26T14:24:47.502Z,2.45
2022-08-26T14:27:15.040Z,2.22
2022-08-26T14:29:42.886Z,2.40
2022-08-26T14:32:16.345Z,2.40
2022-08-26T14:34:46.093Z,2.75
2022-08-26T14:37:15.364Z,2.95
2022-08-26T14:39:42.708Z,2.60
2022-08-26T14:42:10.682Z,2.67
2022-08-26T14:44:37.710Z,2.58
2022-08-26T14:47:06.680Z,2.50
2022-08-26T14:49:34.309Z,2.75
2022-08-26T14:52:01.566Z,2.72
2022-08-26T14:54:29.516Z,2.55
2022-08-26T14:57:01.286Z,2.88
2022-08-26T14:59:37.155Z,3.08
2022-08-26T15:02:06.512Z,2.55
2022-08-26T15:04:34.754Z,2.63
2022-08-26T15:07:03.285Z,3.22
2022-08-26T15:09:33.404Z,2.90
2022-08-26T15:12:00.619Z,2.70
2022-08-26T15:14:32.274Z,2.45
2022-08-26T15:17:00.764Z,2.70
2022-08-26T15:19:28.228Z,2.58
2022-08-26T15:21:56.383Z,3.10
2022-08-26T15:24:26.601Z,2.80
2022-08-26T15:26:54.171Z,2.53
2022-08-26T15:29:22.750Z,3.08
2022-08-26T15:31:50.627Z,3.20
2022-08-26T15:34:17.861Z,3.00
2022-08-26T15:36:47.083Z,2.80
2022-08-26T15:39:16.384Z,3.05
2022-08-26T15:41:43.721Z,2.45
2022-08-26T15:44:11.969Z,2.70
2022-08-26T15:46:39.582Z,2.95
2022-08-26T15:49:07.548Z,2.83
2022-08-26T15:51:45.925Z,3.13
2022-08-26T15:54:16.015Z,3.05
2022-08-26T15:56:43.594Z,2.80
2022-08-26T15:59:11.750Z,2.72
2022-08-26T16:01:39.682Z,2.67
2022-08-26T16:04:07.220Z,2.83
2022-08-26T16:06:36.499Z,2.72
2022-08-26T16:09:05.359Z,2.38
2022-08-26T16:11:37.829Z,2.78
2022-08-26T16:14:06.029Z,2.70
2022-08-26T16:16:33.099Z,2.58
2022-08-26T16:19:04.300Z,2.58
2022-08-26T16:21:34.165Z,2.67
2022-08-26T16:24:01.149Z,3.22
2022-08-26T16:26:32.494Z,2.88
2022-08-26T16:29:06.584Z,2.63
2022-08-26T16:31:34.022Z,3.10
2022-08-26T16:34:01.620Z,2.65
2022-08-26T16:36:28.585Z,2.47
2022-08-26T16:38:56.627Z,2.90
2022-08-26T16:41:25.594Z,2.85
2022-08-26T16:43:53.785Z,3.10
2022-08-26T16:46:23.687Z,2.85
2022-08-26T16:48:55.198Z,2.58
2022-08-26T16:51:23.691Z,2.70
2022-08-26T16:53:52.468Z,2.20
2022-08-26T16:56:22.641Z,2.80
2022-08-26T16:58:50.761Z,2.60
2022-08-26T17:01:18.621Z,3.08
2022-08-26T17:03:45.846Z,2.95
2022-08-26T17:06:13.533Z,3.55
2022-08-26T17:08:42.000Z,2.70
2022-08-26T17:11:09.551Z,2.92
2022-08-26T17:13:38.148Z,3.13
2022-08-26T17:16:08.031Z,2.70
2022-08-26T17:18:36.605Z,2.95
2022-08-26T17:21:09.765Z,3.03
2022-08-26T17:23:41.029Z,2.72
2022-08-26T17:26:09.232Z,3.67
2022-08-26T17:28:36.272Z,3.30
2022-08-26T17:31:06.954Z,3.15
2022-08-26T17:33:34.081Z,3.00
2022-08-26T17:36:01.470Z,2.97
2022-08-26T17:38:29.212Z,2.83
2022-08-26T17:40:57.823Z,3.03
2022-08-26T17:43:26.801Z,3.45
2022-08-26T17:45:58.822Z,2.88
2022-08-26T17:48:35.756Z,3.42
2022-08-26T17:51:11.329Z,2.72
2022-08-26T17:53:38.865Z,3.85
2022-08-26T17:56:08.301Z,3.13
2022-08-26T17:58:35.623Z,2.83
2022-08-26T18:01:03.130Z,2.72
2022-08-26T18:03:30.220Z,2.70
2022-08-26T18:05:57.737Z,2.90
2022-08-26T18:08:24.940Z,2.83
2022-08-26T18:10:52.305Z,2.88
2022-08-26T18:13:19.299Z,3.08
2022-08-26T18:15:47.101Z,3.35
2022-08-26T18:18:15.480Z,3.35
2022-08-26T18:20:44.536Z,3.25
2022-08-26T18:23:12.845Z,3.65
2022-08-26T18:25:42.798Z,3.50
2022-08-26T18:28:09.822Z,3.30
2022-08-26T18:30:37.062Z,3.05
2022-08-26T18:33:04.430Z,3.38
2022-08-26T18:35:31.488Z,2.90
2022-08-26T18:38:01.469Z,3.30
2022-08-26T18:40:44.165Z,3.17
2022-08-26T18:43:11.998Z,3.28
2022-08-26T18:45:39.470Z,3.50
2022-08-26T18:48:06.670Z,3.25
2022-08-26T18:50:33.826Z,3.50
2022-08-26T18:53:02.579Z,3.30
2022-08-26T18:55:29.760Z,3.40
2022-08-26T18:57:56.995Z,3.38
2022-08-26T19:00:24.341Z,4.28
2022-08-26T19:02:52.053Z,3.75
2022-08-26T19:05:23.100Z,3.90
2022-08-26T19:07:52.716Z,3.20
2022-08-26T19:10:19.884Z,3.13
2022-08-26T19:12:46.930Z,3.42
2022-08-26T19:15:19.623Z,4.18
2022-08-26T19:17:46.995Z,4.90
2022-08-26T19:20:14.764Z,4.00
2022-08-26T19:22:42.412Z,4.20
2022-08-26T19:25:09.996Z,3.90
2022-08-26T19:27:37.504Z,4.13
2022-08-26T19:30:06.583Z,3.65
2022-08-26T19:32:33.528Z,3.35
2022-08-26T19:35:00.520Z,3.60
2022-08-26T19:37:28.899Z,3.40
2022-08-26T19:39:56.222Z,3.42
2022-08-26T19:42:23.489Z,4.00
2022-08-26T19:45:24.281Z,4.50
2022-08-26T19:47:53.119Z,3.53
2022-08-26T19:50:22.067Z,3.78
2022-08-26T19:52:49.406Z,3.92
2022-08-26T19:55:18.609Z,3.53
2022-08-26T19:57:45.991Z,4.07
2022-08-26T20:00:16.815Z,3.60
2022-08-26T20:02:44.486Z,4.00
2022-08-26T20:05:14.163Z,3.78
2022-08-26T20:07:41.904Z,4.10
2022-08-26T20:10:15.718Z,4.60
2022-08-26T20:12:43.259Z,3.88
2022-08-26T20:15:12.319Z,4.13
2022-08-26T20:17:40.626Z,4.03
2022-08-26T20:20:33.491Z,4.82
2022-08-26T20:23:03.676Z,3.58
2022-08-26T20:25:32.625Z,3.95
2022-08-26T20:28:00.964Z,3.83
2022-08-26T20:30:28.139Z,3.45
2022-08-26T20:32:57.879Z,3.35
2022-08-26T20:35:26.463Z,3.72
2022-08-26T20:37:53.496Z,4.30
2022-08-26T20:40:22.199Z,3.80
2022-08-26T20:42:49.670Z,4.00
2022-08-26T20:45:17.071Z,3.67
2022-08-26T20:47:44.549Z,4.35
2022-08-26T20:50:11.876Z,3.80
2022-08-26T20:52:38.870Z,4.00
2022-08-26T20:55:06.755Z,3.88
2022-08-26T20:57:33.720Z,4.05
2022-08-26T21:00:01.102Z,4.68
2022-08-26T21:02:28.571Z,4.68
2022-08-26T21:04:55.940Z,3.95
2022-08-26T21:07:23.821Z,4.05
2022-08-26T21:09:52.124Z,4.00
2022-08-26T21:12:19.746Z,4.20
2022-08-26T21:14:49.631Z,4.18
2022-08-26T21:17:17.595Z,4.50
2022-08-26T21:19:45.572Z,4.22
2022-08-26T21:22:13.066Z,4.35
2022-08-26T21:24:40.631Z,3.90
2022-08-26T21:27:07.672Z,4.10
2022-08-26T21:29:36.988Z,5.53
2022-08-26T21:32:06.422Z,4.50
2022-08-26T21:34:33.492Z,3.67
2022-08-26T21:37:01.204Z,4.35
2022-08-26T21:39:32.899Z,4.28
2022-08-26T21:42:00.062Z,4.25
2022-08-26T21:44:27.739Z,4.47
2022-08-26T21:46:55.845Z,4.53
2022-08-26T21:49:22.999Z,4.70
2022-08-26T21:51:53.448Z,4.13
2022-08-26T21:54:20.955Z,4.70
2022-08-26T21:56:50.199Z,6.25
2022-08-26T21:59:18.794Z,5.35
2022-08-26T22:01:47.295Z,5.57
2022-08-26T22:04:15.711Z,5.13
2022-08-26T22:06:46.425Z,4.72
2022-08-26T22:09:15.985Z,4.28
2022-08-26T22:11:43.485Z,4.63
2022-08-26T22:14:11.294Z,4.75
2022-08-26T22:16:39.094Z,4.70
2022-08-26T22:19:06.551Z,5.05
2022-08-26T22:21:35.720Z,5.38
2022-08-26T22:24:03.247Z,5.13
2022-08-26T22:26:32.480Z,4.93
2022-08-26T22:29:01.070Z,5.18
2022-08-26T22:31:37.230Z,5.43
2022-08-26T22:34:09.089Z,5.28
2022-08-26T22:36:43.074Z,5.38
2022-08-26T22:39:17.968Z,4.93
2022-08-26T22:41:46.648Z,5.90
2022-08-26T22:44:13.619Z,5.50
2022-08-26T22:46:42.060Z,5.40
2022-08-26T22:49:10.987Z,5.15
2022-08-26T22:51:38.059Z,5.68
2022-08-26T22:54:05.844Z,6.80
2022-08-26T22:56:33.108Z,6.80
2022-08-26T22:59:00.230Z,6.22
2022-08-26T23:01:27.363Z,6.32
2022-08-26T23:03:54.553Z,5.18
2022-08-26T23:06:21.887Z,5.35
2022-08-26T23:08:49.445Z,4.85
2022-08-26T23:11:17.434Z,5.57
2022-08-26T23:13:44.387Z,5.10
2022-08-26T23:16:12.682Z,5.65
2022-08-26T23:18:41.081Z,5.05
2022-08-26T23:21:08.949Z,5.85
2022-08-26T23:23:38.358Z,5.80
2022-08-26T23:26:08.132Z,5.63
2022-08-26T23:28:37.667Z,5.35
2022-08-26T23:31:05.825Z,5.72
2022-08-26T23:33:51.343Z,5.05
2022-08-26T23:36:22.985Z,5.40
2022-08-26T23:38:53.159Z,5.07
2022-08-26T23:41:22.509Z,5.50
2022-08-26T23:43:50.518Z,5.57
2022-08-26T23:46:18.310Z,5.57
2022-08-26T23:48:45.445Z,5.63
2022-08-26T23:51:31.454Z,5.32
2022-08-26T23:53:58.676Z,5.95
2022-08-26T23:56:26.650Z,6.47
2022-08-26T23:58:54.787Z,5.97
